| time (UTC) | temp C | wind direction | speed KPH | gust KPH | rain 1hr cm | rain 24hr cm | rain mn cm | humidity % | barometer mb |
| 20260507010020 | 14 | 132 | 0.0 | 1.6 | 0.00 | 0.33 | 0.33 | 99 | 1005.6 |
| 20260507005020 | 14 | 148 | 0.0 | 3.2 | 0.00 | 0.33 | 0.33 | 99 | 1005.5 |
| 20260507004018 | 14 | 178 | 0.0 | 6.4 | 0.00 | 0.33 | 0.33 | 99 | 1005.5 |
| 20260507003017 | 14 | 138 | 0.0 | 1.6 | 0.00 | 0.33 | 0.33 | 99 | 1005.4 |
| 20260507002018 | 14 | 144 | 0.0 | 3.2 | 0.00 | 0.33 | 0.33 | 99 | 1005.3 |
| 20260507001019 | 14 | 336 | 0.0 | 6.4 | 0.00 | 0.33 | 0.33 | 99 | 1005.3 |
| 20260507000039 | 14 | 123 | 0.0 | 1.6 | 0.00 | 0.33 | 0.33 | 100 | 1005.2 |
| 20260506235018 | 14 | 122 | 0.0 | 1.6 | 0.03 | 0.33 | 0.33 | 100 | 1005.2 |
| 20260506234018 | 14 | 132 | 0.0 | 3.2 | 0.03 | 0.33 | 0.33 | 100 | 1005.1 |
| 20260506233039 | 14 | 141 | 1.6 | 3.2 | 0.05 | 0.33 | 0.33 | 100 | 1005.1 |
| 20260506232041 | 14 | 0.0 | 0.0 | 0.05 | 0.33 | 0.33 | 100 | 1005.1 | |
| 20260506231019 | 14 | 121 | 1.6 | 3.2 | 0.08 | 0.33 | 0.33 | 100 | 1005.1 |
| 20260506230019 | 14 | 122 | 0.0 | 1.6 | 0.10 | 0.33 | 0.33 | 100 | 1005.0 |
| 20260506225019 | 14 | 0.0 | 0.0 | 0.10 | 0.30 | 0.30 | 99 | 1005.1 | |
| 20260506224057 | 14 | 106 | 0.0 | 1.6 | 0.13 | 0.30 | 0.30 | 99 | 1005.2 |
| 20260506223016 | 15 | 116 | 0.0 | 1.6 | 0.13 | 0.28 | 0.28 | 99 | 1005.2 |
| 20260506222019 | 15 | 115 | 0.0 | 1.6 | 0.13 | 0.28 | 0.28 | 99 | 1005.2 |
| 20260506221020 | 15 | 80 | 0.0 | 3.2 | 0.10 | 0.25 | 0.25 | 99 | 1005.3 |
| 20260506220020 | 15 | 169 | 0.0 | 3.2 | 0.08 | 0.23 | 0.23 | 98 | 1005.5 |
| 20260506215020 | 15 | 135 | 0.0 | 3.2 | 0.08 | 0.20 | 0.20 | 98 | 1005.5 |
| 20260506214017 | 15 | 133 | 1.6 | 4.8 | 0.05 | 0.18 | 0.18 | 98 | 1005.5 |
| 20260506213017 | 15 | 154 | 0.0 | 4.8 | 0.03 | 0.15 | 0.15 | 97 | 1005.5 |
| 20260506212021 | 15 | 120 | 0.0 | 3.2 | 0.00 | 0.15 | 0.15 | 97 | 1005.5 |
| 20260506211022 | 15 | 143 | 1.6 | 4.8 | 0.03 | 0.15 | 0.15 | 96 | 1005.7 |
| 20260506210021 | 15 | 152 | 0.0 | 4.8 | 0.03 | 0.15 | 0.15 | 97 | 1005.8 |
| 20260506205039 | 15 | 156 | 0.0 | 4.8 | 0.03 | 0.15 | 0.15 | 96 | 1005.8 |
| 20260506204018 | 15 | 145 | 1.6 | 3.2 | 0.03 | 0.13 | 0.13 | 96 | 1005.9 |
| 20260506203018 | 15 | 152 | 0.0 | 3.2 | 0.03 | 0.13 | 0.13 | 96 | 1006.0 |
| 20260506202019 | 15 | 153 | 1.6 | 6.4 | 0.03 | 0.13 | 0.13 | 96 | 1006.0 |
| 20260506201019 | 15 | 168 | 1.6 | 6.4 | 0.03 | 0.13 | 0.13 | 95 | 1006.1 |
| 20260506200039 | 16 | 155 | 0.0 | 4.8 | 0.03 | 0.13 | 0.13 | 95 | 1006.0 |
| 20260506195039 | 16 | 131 | 0.0 | 4.8 | 0.03 | 0.13 | 0.13 | 94 | 1006.2 |
| 20260506194019 | 16 | 157 | 0.0 | 3.2 | 0.03 | 0.13 | 0.13 | 94 | 1006.3 |
| 20260506193040 | 16 | 355 | 0.0 | 4.8 | 0.03 | 0.10 | 0.10 | 93 | 1006.2 |
| 20260506192020 | 16 | 151 | 0.0 | 4.8 | 0.05 | 0.10 | 0.10 | 94 | 1006.1 |
| 20260506191017 | 16 | 136 | 0.0 | 4.8 | 0.05 | 0.10 | 0.10 | 95 | 1006.2 |
| 20260506190018 | 16 | 0.0 | 0.0 | 0.08 | 0.10 | 0.10 | 94 | 1006.1 | |
| 20260506185020 | 16 | 131 | 0.0 | 3.2 | 0.10 | 0.10 | 0.10 | 93 | 1006.2 |
| 20260506184020 | 16 | 165 | 1.6 | 4.8 | 0.10 | 0.10 | 0.10 | 92 | 1006.3 |
| 20260506183020 | 17 | 164 | 0.0 | 3.2 | 0.08 | 0.08 | 0.08 | 90 | 1006.5 |
| 20260506182019 | 17 | 0 | 0.0 | 3.2 | 0.08 | 0.08 | 0.08 | 89 | 1006.6 |
| 20260506181038 | 18 | 350 | 0.0 | 3.2 | 0.05 | 0.05 | 0.05 | 86 | 1006.8 |
| 20260506175018 | 20 | 345 | 1.6 | 8.0 | 0.00 | 0.00 | 0.00 | 73 | 1006.7 |
| 20260506174018 | 21 | 343 | 1.6 | 4.8 | 0.00 | 0.00 | 0.00 | 69 | 1006.5 |
| 20260506173018 | 21 | 341 | 0.0 | 8.0 | 0.00 | 0.00 | 0.00 | 65 | 1006.4 |
| 20260506172018 | 21 | 299 | 3.2 | 8.0 | 0.00 | 0.00 | 0.00 | 64 | 1006.3 |
| 20260506171019 | 21 | 241 | 1.6 | 6.4 | 0.00 | 0.00 | 0.00 | 63 | 1006.4 |
| 20260506170020 | 22 | 183 | 1.6 | 6.4 | 0.00 | 0.00 | 0.00 | 61 | 1006.4 |
| 20260506165019 | 22 | 176 | 1.6 | 8.0 | 0.00 | 0.00 | 0.00 | 61 | 1006.5 |
| 20260506164019 | 21 | 9 | 1.6 | 6.4 | 0.00 | 0.00 | 0.00 | 62 | 1006.6 |
| 20260506163019 | 21 | 325 | 1.6 | 6.4 | 0.00 | 0.00 | 0.00 | 63 | 1006.8 |
| 20260506162020 | 21 | 168 | 1.6 | 8.0 | 0.00 | 0.00 | 0.00 | 63 | 1007.1 |
| 20260506161020 | 21 | 52 | 1.6 | 9.7 | 0.00 | 0.00 | 0.00 | 63 | 1007.2 |
| 20260506160100 | 21 | 349 | 0.0 | 6.4 | 0.00 | 0.00 | 0.00 | 64 | 1007.4 |
| 20260506155017 | 21 | 345 | 1.6 | 12.9 | 0.00 | 0.00 | 0.00 | 64 | 1007.6 |
| 20260506154037 | 21 | 272 | 1.6 | 6.4 | 0.00 | 0.00 | 0.00 | 64 | 1007.6 |
| 20260506153017 | 21 | 330 | 1.6 | 6.4 | 0.00 | 0.00 | 0.00 | 65 | 1007.7 |
| 20260506152018 | 20 | 160 | 1.6 | 4.8 | 0.00 | 0.00 | 0.00 | 67 | 1007.9 |
| 20260506151022 | 20 | 178 | 1.6 | 4.8 | 0.00 | 0.00 | 0.00 | 67 | 1008.1 |
| 20260506150021 | 20 | 145 | 1.6 | 8.0 | 0.00 | 0.00 | 0.00 | 68 | 1008.3 |
| 20260506145018 | 20 | 97 | 0.0 | 4.8 | 0.00 | 0.00 | 0.00 | 68 | 1008.1 |
| 20260506144018 | 20 | 347 | 1.6 | 4.8 | 0.00 | 0.00 | 0.00 | 69 | 1008.4 |
| 20260506143040 | 20 | 175 | 0.0 | 3.2 | 0.00 | 0.00 | 0.00 | 70 | 1008.3 |
| 20260506142019 | 20 | 170 | 0.0 | 3.2 | 0.00 | 0.00 | 0.00 | 71 | 1008.2 |
| 20260506141018 | 20 | 166 | 1.6 | 4.8 | 0.00 | 0.00 | 0.00 | 72 | 1008.1 |
| 20260506140019 | 19 | 151 | 1.6 | 6.4 | 0.00 | 0.00 | 0.00 | 72 | 1008.0 |
| 20260506135019 | 19 | 172 | 1.6 | 6.4 | 0.00 | 0.00 | 0.00 | 72 | 1008.1 |
| 20260506134020 | 19 | 160 | 1.6 | 4.8 | 0.00 | 0.00 | 0.00 | 72 | 1008.2 |
| 20260506133020 | 19 | 3 | 0.0 | 4.8 | 0.00 | 0.00 | 0.00 | 72 | 1008.3 |
| 20260506132020 | 18 | 170 | 0.0 | 3.2 | 0.00 | 0.00 | 0.00 | 73 | 1008.5 |
| 20260506131017 | -17 | 349 | 0.0 | 0.0 | 0.00 | 0.00 | 0.00 | ||
| 20260506130017 | -17 | 31 | 1.6 | 8.0 | 0.00 | 0.00 | 0.00 | ||
| 20260506125020 | 18 | 11 | 1.6 | 8.0 | 0.00 | 0.00 | 0.00 | 75 | 1008.7 |
| 20260506124020 | 18 | 28 | 1.6 | 8.0 | 0.00 | 0.00 | 0.00 | 74 | 1008.8 |
| 20260506123018 | 18 | 148 | 0.0 | 3.2 | 0.00 | 0.00 | 0.00 | 74 | 1008.7 |
| 20260506122017 | 18 | 164 | 1.6 | 4.8 | 0.00 | 0.00 | 0.00 | 74 | 1008.5 |
| 20260506121018 | 17 | 166 | 1.6 | 6.4 | 0.00 | 0.00 | 0.00 | 77 | 1008.8 |
| 20260506120018 | 17 | 136 | 0.0 | 1.6 | 0.00 | 0.00 | 0.00 | 77 | 1008.7 |
| 20260506115018 | 17 | 165 | 1.6 | 6.4 | 0.00 | 0.00 | 0.00 | 76 | 1008.6 |
| 20260506114018 | 17 | 166 | 1.6 | 4.8 | 0.00 | 0.00 | 0.00 | 79 | 1008.8 |
| 20260506113018 | 16 | 119 | 0.0 | 3.2 | 0.00 | 0.00 | 0.00 | 81 | 1008.9 |
| 20260506112019 | 16 | 130 | 0.0 | 3.2 | 0.00 | 0.00 | 0.00 | 82 | 1009.0 |
| 20260506111019 | 16 | 126 | 0.0 | 4.8 | 0.00 | 0.00 | 0.00 | 82 | 1009.2 |
| 20260506110020 | 15 | 138 | 0.0 | 1.6 | 0.00 | 0.00 | 0.00 | 82 | 1009.1 |
| 20260506105020 | 15 | 146 | 1.6 | 4.8 | 0.00 | 0.00 | 0.00 | 83 | 1008.9 |
| 20260506104020 | 15 | 139 | 1.6 | 3.2 | 0.00 | 0.00 | 0.00 | 85 | 1009.1 |
| 20260506103020 | 14 | 129 | 0.0 | 3.2 | 0.00 | 0.00 | 0.00 | 86 | 1008.9 |
| 20260506102020 | 14 | 114 | 0.0 | 3.2 | 0.00 | 0.00 | 0.00 | 86 | 1008.8 |
| 20260506101019 | 14 | 124 | 1.6 | 6.4 | 0.00 | 0.00 | 0.00 | 86 | 1008.8 |
| 20260506100020 | 14 | 127 | 0.0 | 3.2 | 0.00 | 0.00 | 0.00 | 86 | 1008.8 |
| 20260506095020 | 14 | 134 | 0.0 | 3.2 | 0.00 | 0.00 | 0.00 | 85 | 1008.7 |
| 20260506094017 | 14 | 131 | 0.0 | 1.6 | 0.00 | 0.00 | 0.00 | 85 | 1008.8 |
| 20260506093018 | 15 | 132 | 0.0 | 3.2 | 0.00 | 0.00 | 0.00 | 84 | 1008.7 |
| 20260506092018 | 15 | 131 | 1.6 | 4.8 | 0.00 | 0.00 | 0.00 | 84 | 1008.6 |
| 20260506091021 | 15 | 133 | 0.0 | 1.6 | 0.00 | 0.00 | 0.00 | 83 | 1008.7 |
| 20260506090021 | 15 | 126 | 0.0 | 3.2 | 0.00 | 0.00 | 0.00 | 83 | 1008.8 |
| 20260506085018 | 15 | 121 | 0.0 | 3.2 | 0.00 | 0.00 | 0.00 | 81 | 1008.8 |
| 20260506084018 | 15 | 131 | 1.6 | 6.4 | 0.00 | 0.00 | 0.00 | 81 | 1008.8 |
| 20260506083019 | 15 | 146 | 0.0 | 3.2 | 0.00 | 0.00 | 0.00 | 80 | 1008.8 |
| 20260506082059 | 15 | 150 | 1.6 | 4.8 | 0.00 | 0.00 | 0.00 | 80 | 1008.7 |
| 20260506081019 | 15 | 137 | 1.6 | 6.4 | 0.00 | 0.00 | 0.00 | 80 | 1008.8 |
| 20260506073020 | 16 | 138 | 0.0 | 4.8 | 0.00 | 0.00 | 0.00 | 77 | 1008.6 |
| 20260506072020 | 16 | 126 | 0.0 | 3.2 | 0.00 | 0.00 | 0.00 | 76 | 1008.5 |
| 20260506071020 | 16 | 125 | 0.0 | 3.2 | 0.00 | 0.00 | 0.00 | 75 | 1008.4 |
| 20260506062041 | 17 | 64 | 0.0 | 4.8 | 0.00 | 0.00 | 0.00 | 71 | 1008.1 |
| 20260506061019 | 17 | 349 | 1.6 | 9.7 | 0.00 | 0.00 | 0.00 | 71 | 1008.1 |
| 20260506051019 | 17 | 127 | 1.6 | 4.8 | 0.00 | 0.00 | 0.00 | 67 | 1008.3 |
| 20260506045021 | 17 | 146 | 1.6 | 6.4 | 0.00 | 0.00 | 0.00 | 67 | 1008.5 |
| 20260506044019 | 17 | 155 | 1.6 | 4.8 | 0.00 | 0.00 | 0.00 | 68 | 1008.5 |
| 20260506043017 | 17 | 168 | 0.0 | 3.2 | 0.00 | 0.00 | 0.00 | 68 | 1008.6 |
| 20260506042020 | 17 | 138 | 0.0 | 4.8 | 0.00 | 0.00 | 0.00 | 68 | 1008.6 |
| 20260506041020 | 17 | 112 | 1.6 | 4.8 | 0.00 | 0.00 | 0.00 | 67 | 1008.6 |
| 20260506040020 | 17 | 143 | 0.0 | 4.8 | 0.00 | 0.00 | 0.00 | 67 | 1008.7 |
| 20260506035040 | 17 | 137 | 1.6 | 6.4 | 0.00 | 0.00 | 0.00 | 67 | 1008.7 |
| 20260506034019 | 17 | 96 | 1.6 | 4.8 | 0.00 | 0.00 | 0.00 | 67 | 1008.7 |
| 20260506033017 | 17 | 158 | 0.0 | 3.2 | 0.00 | 0.00 | 0.00 | 67 | 1008.7 |
| 20260506032018 | 17 | 130 | 0.0 | 3.2 | 0.00 | 0.00 | 0.00 | 67 | 1008.7 |
| 20260506031021 | 17 | 104 | 0.0 | 3.2 | 0.00 | 0.00 | 0.00 | 66 | 1008.7 |
| 20260506030038 | 17 | 154 | 0.0 | 3.2 | 0.00 | 0.00 | 0.00 | 65 | 1008.7 |
| 20260506025041 | 17 | 136 | 0.0 | 1.6 | 0.00 | 0.00 | 0.00 | 65 | 1008.6 |
| 20260506024021 | 17 | 0.0 | 0.0 | 0.00 | 0.00 | 0.00 | 65 | 1008.6 | |
| 20260506023019 | 17 | 138 | 0.0 | 3.2 | 0.00 | 0.00 | 0.00 | 65 | 1008.6 |
| 20260506022019 | 18 | 119 | 0.0 | 1.6 | 0.00 | 0.00 | 0.00 | 65 | 1008.5 |
| 20260506021019 | 18 | 144 | 0.0 | 3.2 | 0.00 | 0.00 | 0.00 | 64 | 1008.5 |
| 20260506020019 | 18 | 0.0 | 0.0 | 0.00 | 0.00 | 0.00 | 63 | 1008.5 | |
| 20260506015019 | 18 | 0.0 | 0.0 | 0.00 | 0.00 | 0.00 | 62 | 1008.5 | |
| 20260506014019 | 19 | 159 | 1.6 | 3.2 | 0.00 | 0.00 | 0.00 | 61 | 1008.4 |
| 20260506013038 | 20 | 119 | 0.0 | 4.8 | 0.00 | 0.00 | 0.00 | 59 | 1008.2 |
| 20260506012020 | 20 | 342 | 0.0 | 4.8 | 0.00 | 0.00 | 0.00 | 59 | 1008.0 |
| 20260506011017 | 20 | 119 | 1.6 | 4.8 | 0.00 | 0.00 | 0.00 | 58 | 1007.7 |